createdAt,value
2023-03-05T00:00:51.088Z,17.73
2023-03-05T00:06:53.472Z,16.58
2023-03-05T00:12:55.866Z,17.85
2023-03-05T00:18:59.700Z,16.75
2023-03-05T00:25:01.958Z,17.98
2023-03-05T00:31:04.386Z,16.35
2023-03-05T00:43:10.036Z,17.10
2023-03-05T00:49:12.383Z,17.17
2023-03-05T00:55:14.628Z,17.60
2023-03-05T01:01:17.083Z,18.38
2023-03-05T01:07:19.659Z,19.88
2023-03-05T01:19:24.162Z,16.83
2023-03-05T01:25:27.073Z,18.95
2023-03-05T01:31:29.647Z,18.73
2023-03-05T01:43:34.317Z,19.10
2023-03-05T01:55:40.964Z,21.40
2023-03-05T02:01:46.430Z,20.27
2023-03-05T02:07:48.833Z,20.35
2023-03-05T02:13:51.190Z,19.63
2023-03-05T02:19:56.669Z,22.00
2023-03-05T02:25:59.072Z,20.23
2023-03-05T02:32:02.047Z,21.95
2023-03-05T02:38:04.291Z,24.45
2023-03-05T02:44:06.454Z,22.50
2023-03-05T02:50:10.557Z,23.73
2023-03-05T02:56:13.419Z,19.75
2023-03-05T03:02:17.291Z,22.83
2023-03-05T03:08:19.488Z,22.05
2023-03-05T03:14:22.088Z,23.80
2023-03-05T03:20:24.647Z,20.25
2023-03-05T03:32:29.595Z,20.52
2023-03-05T03:38:31.923Z,21.02
2023-03-05T03:44:34.117Z,24.60
2023-03-05T03:50:40.409Z,23.88
2023-03-05T03:56:42.707Z,24.05
2023-03-05T04:02:45.298Z,23.20
2023-03-05T04:08:47.870Z,22.45
2023-03-05T04:20:52.422Z,21.27
2023-03-05T04:26:54.724Z,23.73
2023-03-05T04:32:57.168Z,24.17
2023-03-05T04:45:01.459Z,23.15
2023-03-05T04:51:03.959Z,21.75
2023-03-05T04:57:06.355Z,23.58
2023-03-05T05:03:08.612Z,24.60
2023-03-05T05:09:10.874Z,26.10
2023-03-05T05:15:13.751Z,27.67
2023-03-05T05:21:16.536Z,27.13
2023-03-05T05:27:18.835Z,27.52
2023-03-05T05:33:22.086Z,27.00
2023-03-05T05:39:24.366Z,27.63
2023-03-05T05:45:26.914Z,28.70
2023-03-05T05:57:31.419Z,26.80
2023-03-05T06:03:33.709Z,24.17
2023-03-05T06:09:36.949Z,30.67
2023-03-05T06:15:39.254Z,33.92
2023-03-05T06:21:41.727Z,28.17
2023-03-05T06:27:43.916Z,27.27
2023-03-05T06:33:46.511Z,28.25
2023-03-05T06:39:48.927Z,25.30
2023-03-05T06:46:05.524Z,23.42
2023-03-05T06:52:10.474Z,23.38
2023-03-05T06:58:12.712Z,23.20
2023-03-05T07:04:15.785Z,22.50
2023-03-05T07:10:18.098Z,21.17
2023-03-05T07:16:32.006Z,20.50
2023-03-05T07:22:34.331Z,21.42
2023-03-05T07:28:36.435Z,20.80
2023-03-05T07:34:39.625Z,20.83
2023-03-05T07:40:42.125Z,19.75
2023-03-05T07:52:46.692Z,22.95
2023-03-05T07:58:48.892Z,22.25
2023-03-05T08:04:51.196Z,21.55
2023-03-05T08:10:53.489Z,21.05
2023-03-05T08:16:55.874Z,23.02
2023-03-05T08:22:58.173Z,24.42
2023-03-05T08:29:00.657Z,23.45
2023-03-05T08:41:07.046Z,22.98
2023-03-05T08:47:09.373Z,23.90
2023-03-05T08:53:12.146Z,21.33
2023-03-05T08:59:15.011Z,21.25
2023-03-05T09:05:17.735Z,22.48
2023-03-05T09:11:20.248Z,20.00
2023-03-05T09:17:23.357Z,22.80
2023-03-05T09:23:25.942Z,19.70
2023-03-05T09:29:29.251Z,21.75
2023-03-05T09:35:36.436Z,20.73
2023-03-05T09:41:53.807Z,18.85
2023-03-05T09:48:02.227Z,20.75
2023-03-05T09:54:14.264Z,18.70
2023-03-05T10:00:35.112Z,20.60
2023-03-05T10:06:46.860Z,20.83
2023-03-05T10:12:56.556Z,20.77
2023-03-05T10:19:14.078Z,18.40
2023-03-05T10:25:25.292Z,17.92
2023-03-05T10:31:53.564Z,17.67
2023-03-05T10:38:02.632Z,17.35
2023-03-05T10:44:20.958Z,17.45
2023-03-05T10:50:25.897Z,17.35
2023-03-05T10:56:29.443Z,19.40
2023-03-05T11:02:31.845Z,18.67
2023-03-05T11:08:36.261Z,18.40
2023-03-05T11:14:46.945Z,18.30
2023-03-05T11:20:49.055Z,16.77
2023-03-05T11:26:53.977Z,16.65
2023-03-05T11:33:16.671Z,17.67
2023-03-05T11:39:25.092Z,17.00
2023-03-05T11:45:29.300Z,18.10
2023-03-05T11:51:45.108Z,18.10
2023-03-05T11:57:53.180Z,18.80
2023-03-05T12:03:56.034Z,20.75
2023-03-05T12:09:58.201Z,21.40
2023-03-05T12:16:29.413Z,17.27
2023-03-05T12:22:39.667Z,21.17
2023-03-05T12:28:41.971Z,21.17
2023-03-05T12:34:48.681Z,21.05
2023-03-05T12:40:51.072Z,20.98
2023-03-05T12:47:18.293Z,21.95
2023-03-05T12:53:21.512Z,21.73
2023-03-05T12:59:29.507Z,27.67
2023-03-05T13:05:34.730Z,20.38
2023-03-05T13:11:39.560Z,24.02
2023-03-05T13:17:52.227Z,20.35
2023-03-05T13:23:59.341Z,19.30
2023-03-05T13:30:01.766Z,39.35
2023-03-05T13:36:06.120Z,21.02
2023-03-05T13:42:23.945Z,20.30
2023-03-05T13:48:28.257Z,20.42
2023-03-05T13:54:31.198Z,19.52
2023-03-05T14:00:42.441Z,60.60
2023-03-05T14:06:55.950Z,23.52
2023-03-05T14:13:00.015Z,19.98
2023-03-05T14:19:05.306Z,65.07
2023-03-05T14:25:30.434Z,20.67
2023-03-05T14:31:46.015Z,19.42
2023-03-05T14:37:51.041Z,20.08
2023-03-05T14:43:53.851Z,18.95
2023-03-05T14:49:56.462Z,19.25
2023-03-05T14:55:58.927Z,21.27
2023-03-05T15:02:01.293Z,18.17
2023-03-05T15:08:03.822Z,18.27
2023-03-05T15:14:06.218Z,19.70
2023-03-05T15:20:30.728Z,19.67
2023-03-05T15:26:32.935Z,20.23
2023-03-05T15:32:35.168Z,19.60
2023-03-05T15:38:39.255Z,20.38
2023-03-05T15:44:42.986Z,21.42
2023-03-05T15:50:45.442Z,20.40
2023-03-05T15:56:48.337Z,21.38
2023-03-05T16:02:50.943Z,20.80
2023-03-05T16:08:57.609Z,18.58
2023-03-05T16:15:00.092Z,21.73
2023-03-05T16:21:03.124Z,19.27
2023-03-05T16:27:05.731Z,21.17
2023-03-05T16:33:08.106Z,23.98
2023-03-05T16:39:10.398Z,21.88
2023-03-05T16:45:13.549Z,29.98
2023-03-05T16:51:20.841Z,36.65
2023-03-05T16:57:26.334Z,31.55
2023-03-05T17:03:29.267Z,30.90
2023-03-05T17:15:34.582Z,30.73
2023-03-05T17:21:38.453Z,30.92
2023-03-05T17:27:42.068Z,29.15
2023-03-05T17:33:44.573Z,30.13
2023-03-05T17:39:47.051Z,28.05
2023-03-05T17:45:49.501Z,28.13
2023-03-05T17:51:51.936Z,28.80
2023-03-05T17:57:54.476Z,29.95
2023-03-05T18:03:57.601Z,29.88
2023-03-05T18:10:00.552Z,27.83
2023-03-05T18:16:03.097Z,27.77
2023-03-05T18:22:05.377Z,27.10
2023-03-05T18:28:10.307Z,27.45
2023-03-05T18:34:12.467Z,26.25
2023-03-05T18:40:19.456Z,28.33
2023-03-05T18:46:21.869Z,31.38
2023-03-05T18:52:24.097Z,31.83
2023-03-05T18:58:26.448Z,31.90
2023-03-05T19:04:28.706Z,29.80
2023-03-05T19:10:32.416Z,30.67
2023-03-05T19:16:40.741Z,29.30
2023-03-05T19:22:43.194Z,33.38
2023-03-05T19:28:45.433Z,33.60
2023-03-05T19:34:49.850Z,31.95
2023-03-05T19:40:53.921Z,30.27
2023-03-05T19:46:56.294Z,28.83
2023-03-05T19:53:00.810Z,29.13
2023-03-05T19:59:03.528Z,29.85
2023-03-05T20:05:06.152Z,27.83
2023-03-05T20:11:11.536Z,30.30
2023-03-05T20:17:14.294Z,35.75
2023-03-05T20:29:18.995Z,31.05
2023-03-05T20:35:21.429Z,33.33
2023-03-05T20:41:23.736Z,41.15
2023-03-05T20:47:51.928Z,40.13
2023-03-05T20:53:58.365Z,41.45
2023-03-05T21:00:00.708Z,41.67
2023-03-05T21:06:07.115Z,31.35
2023-03-05T21:18:12.217Z,24.60
2023-03-05T21:24:33.131Z,21.20
2023-03-05T21:30:44.217Z,18.48
2023-03-05T21:36:46.568Z,16.25
2023-03-05T21:42:48.980Z,13.68
2023-03-05T21:48:51.154Z,15.68
2023-03-05T21:54:54.703Z,8.98
2023-03-05T22:00:58.517Z,11.43
2023-03-05T22:07:01.289Z,13.10
2023-03-05T22:13:10.772Z,12.50
2023-03-05T22:19:13.192Z,11.82
2023-03-05T22:25:16.617Z,12.15
2023-03-05T22:31:23.445Z,10.80
2023-03-05T22:37:25.971Z,12.10
2023-03-05T22:43:28.133Z,11.57
2023-03-05T22:49:30.411Z,12.00
2023-03-05T22:55:32.685Z,12.48
2023-03-05T23:01:34.991Z,10.27
2023-03-05T23:07:40.345Z,10.18
2023-03-05T23:13:42.594Z,11.15
2023-03-05T23:19:44.663Z,9.90
2023-03-05T23:25:50.201Z,10.23
2023-03-05T23:31:55.433Z,10.98
2023-03-05T23:37:59.510Z,11.13
2023-03-05T23:44:01.589Z,9.50
2023-03-05T23:50:08.888Z,8.98
2023-03-05T23:56:12.194Z,9.38
